This is the latest recevied weather packets stored in our database for station/object DL7KST-13. If no packets are shown the sender has not sent any weather packets the latest 1 day(s).
| Time | Temp. | Humidity | Pressure | Rain* | Wind** | Luminosity | Snow |
|---|---|---|---|---|---|---|---|
| 1777992238 | 16.67° C | 70% | 998.9 hPa | 0 mm | 0 m/s | - | - |
| 1777991034 | 17.22° C | 69% | 998.7 hPa | 0 mm | 0.89 m/s, 47° | - | - |
| 1777989829 | 17.78° C | 69% | 998.7 hPa | 0 mm | 0.89 m/s, 48° | - | - |
| 1777988624 | 17.22° C | 69% | 999.1 hPa | 0 mm | 0.89 m/s, 49° | - | - |
| 1777987419 | 17.78° C | 67% | 998.9 hPa | 0 mm | 0 m/s | - | - |
| 1777986213 | 18.33° C | 65% | 999 hPa | 0 mm | 0.45 m/s, 46° | - | - |
| 1777985009 | 18.33° C | 65% | 999.4 hPa | 0 mm | 0.45 m/s, 15° | - | - |
| 1777983803 | 17.22° C | 66% | 999.6 hPa | 0 mm | 0.45 m/s, 51° | - | - |
| 1777982598 | 16.67° C | 71% | 999.6 hPa | 0 mm | 0 m/s | - | - |
| 1777981394 | 16.67° C | 70% | 999.6 hPa | 0 mm | 0.45 m/s, 340° | - | - |
| 1777980189 | 16.11° C | 71% | 999.6 hPa | 0 mm | 0.89 m/s, 125° | - | - |
| 1777978984 | 16.11° C | 72% | 999.7 hPa | 0 mm | 0 m/s | - | - |
| 1777977778 | 15.56° C | 74% | 999.8 hPa | 0.25 mm | 0.45 m/s, 183° | - | - |
| 1777976835 | 15.56° C | 72% | 1000 hPa | 0.25 mm | 0.45 m/s, 86° | - | - |
| 1777976792 | 15.56° C | 72% | 1000 hPa | 0.25 mm | 0.45 m/s, 86° | - | - |
| 1777976650 | 15.56° C | 72% | 1000 hPa | 0.25 mm | 0.45 m/s, 86° | - | - |
| 1777976574 | 15.56° C | 72% | 1000 hPa | 0.25 mm | 0.45 m/s, 86° | - | - |
| 1777975369 | 15.56° C | 74% | 1000 hPa | 0.25 mm | 0.45 m/s, 179° | - | - |
| 1777974190 | - | - | - | - | 0.45 m/s, 127° | - | - |
| 1777974164 | 15° C | 74% | 1000.1 hPa | 0.25 mm | 0.45 m/s, 127° | - | - |
| 1777972959 | 14.44° C | 79% | 1000.2 hPa | 0.25 mm | 0.89 m/s, 72° | - | - |
| 1777971754 | 14.44° C | 77% | 1000.2 hPa | 0.25 mm | 1.79 m/s, 27° | - | - |
| 1777970549 | 14.44° C | 78% | 1000.3 hPa | 0.25 mm | 0.45 m/s, 80° | - | - |
| 1777969344 | 13.89° C | 80% | 1000 hPa | 0 mm | 0.89 m/s, 88° | - | - |
| 1777968139 | 13.33° C | 82% | 1000.3 hPa | 0 mm | 0.45 m/s, 4° | - | - |
* Rain latest hour (hover to see other rain measurements)
** Current wind speed in m/s (hover to see current wind gust speed)